sensor_id;sensor_type;location;lat;lon;timestamp;pressure;altitude;pressure_sealevel;temperature;humidity
3434;BME280;1730;41.932;25.548;2023-05-25T00:01:58;101480.28;;;14.45;100.00
3434;BME280;1730;41.932;25.548;2023-05-25T00:04:29;101456.50;;;14.37;100.00
3434;BME280;1730;41.932;25.548;2023-05-25T00:06:59;101478.19;;;14.49;100.00
3434;BME280;1730;41.932;25.548;2023-05-25T00:09:24;101308.88;;;13.41;100.00
3434;BME280;1730;41.932;25.548;2023-05-25T00:11:50;101316.50;;;13.47;100.00
3434;BME280;1730;41.932;25.548;2023-05-25T00:14:17;101228.91;;;12.80;100.00
3434;BME280;1730;41.932;25.548;2023-05-25T00:16:42;101495.00;;;14.42;100.00
3434;BME280;1730;41.932;25.548;2023-05-25T00:19:10;101385.13;;;13.70;100.00
3434;BME280;1730;41.932;25.548;2023-05-25T00:21:35;101528.19;;;14.46;100.00
3434;BME280;1730;41.932;25.548;2023-05-25T00:24:05;101518.28;;;14.56;100.00
3434;BME280;1730;41.932;25.548;2023-05-25T00:26:31;101426.16;;;13.88;100.00
3434;BME280;1730;41.932;25.548;2023-05-25T00:28:57;101497.81;;;14.41;100.00
3434;BME280;1730;41.932;25.548;2023-05-25T00:31:24;101482.50;;;14.40;100.00
3434;BME280;1730;41.932;25.548;2023-05-25T00:33:50;101364.66;;;13.88;100.00
3434;BME280;1730;41.932;25.548;2023-05-25T00:36:16;101427.22;;;14.52;100.00
3434;BME280;1730;41.932;25.548;2023-05-25T00:38:41;101453.59;;;14.61;100.00
3434;BME280;1730;41.932;25.548;2023-05-25T00:41:07;101435.94;;;14.67;100.00
3434;BME280;1730;41.932;25.548;2023-05-25T00:43:32;101385.94;;;14.69;100.00
3434;BME280;1730;41.932;25.548;2023-05-25T00:45:58;101173.19;;;13.65;100.00
3434;BME280;1730;41.932;25.548;2023-05-25T00:48:25;101218.88;;;14.13;100.00
3434;BME280;1730;41.932;25.548;2023-05-25T00:50:53;101298.69;;;14.63;100.00
3434;BME280;1730;41.932;25.548;2023-05-25T00:53:19;101297.59;;;14.65;100.00
3434;BME280;1730;41.932;25.548;2023-05-25T00:55:52;101139.66;;;13.66;100.00
3434;BME280;1730;41.932;25.548;2023-05-25T00:58:20;101288.53;;;14.44;100.00
3434;BME280;1730;41.932;25.548;2023-05-25T01:00:46;101307.63;;;14.54;100.00
3434;BME280;1730;41.932;25.548;2023-05-25T01:03:14;101289.22;;;14.25;100.00
3434;BME280;1730;41.932;25.548;2023-05-25T01:05:47;101320.19;;;14.23;100.00
3434;BME280;1730;41.932;25.548;2023-05-25T01:08:15;101384.69;;;14.30;100.00
3434;BME280;1730;41.932;25.548;2023-05-25T01:10:42;101344.69;;;14.32;100.00
3434;BME280;1730;41.932;25.548;2023-05-25T01:13:08;101342.06;;;14.10;100.00
3434;BME280;1730;41.932;25.548;2023-05-25T01:15:36;101268.56;;;13.48;100.00
3434;BME280;1730;41.932;25.548;2023-05-25T01:18:02;101364.75;;;14.09;100.00
3434;BME280;1730;41.932;25.548;2023-05-25T01:20:28;101354.03;;;13.96;100.00
3434;BME280;1730;41.932;25.548;2023-05-25T01:23:00;101389.53;;;14.16;100.00
3434;BME280;1730;41.932;25.548;2023-05-25T01:28:06;101373.50;;;14.13;100.00
3434;BME280;1730;41.932;25.548;2023-05-25T01:30:34;101377.72;;;13.94;100.00
3434;BME280;1730;41.932;25.548;2023-05-25T01:33:01;101368.87;;;13.81;100.00
3434;BME280;1730;41.932;25.548;2023-05-25T01:35:27;101207.41;;;12.90;100.00
3434;BME280;1730;41.932;25.548;2023-05-25T01:37:53;101359.22;;;13.88;100.00
3434;BME280;1730;41.932;25.548;2023-05-25T01:40:18;100910.38;;;10.92;100.00
3434;BME280;1730;41.932;25.548;2023-05-25T01:42:44;100812.09;;;10.94;100.00
3434;BME280;1730;41.932;25.548;2023-05-25T01:45:11;101206.19;;;13.16;100.00
3434;BME280;1730;41.932;25.548;2023-05-25T01:53:09;101256.72;;;13.71;100.00
3434;BME280;1730;41.932;25.548;2023-05-25T01:55:39;101256.94;;;13.90;100.00
3434;BME280;1730;41.932;25.548;2023-05-25T01:58:07;101083.28;;;13.06;100.00
3434;BME280;1730;41.932;25.548;2023-05-25T02:00:34;101213.06;;;13.85;100.00
3434;BME280;1730;41.932;25.548;2023-05-25T02:03:00;101126.84;;;13.36;100.00
3434;BME280;1730;41.932;25.548;2023-05-25T02:05:26;101210.37;;;14.06;100.00
3434;BME280;1730;41.932;25.548;2023-05-25T02:07:52;101217.84;;;14.46;100.00
3434;BME280;1730;41.932;25.548;2023-05-25T02:10:18;101096.91;;;13.90;100.00
3434;BME280;1730;41.932;25.548;2023-05-25T02:12:43;101108.34;;;14.15;100.00
3434;BME280;1730;41.932;25.548;2023-05-25T02:15:10;101099.06;;;14.17;100.00
3434;BME280;1730;41.932;25.548;2023-05-25T02:17:35;101070.69;;;14.21;100.00
3434;BME280;1730;41.932;25.548;2023-05-25T02:20:02;101056.31;;;14.30;100.00
3434;BME280;1730;41.932;25.548;2023-05-25T02:22:30;100886.00;;;13.43;100.00
3434;BME280;1730;41.932;25.548;2023-05-25T02:24:56;101003.28;;;14.26;100.00
3434;BME280;1730;41.932;25.548;2023-05-25T02:27:21;100975.94;;;14.09;100.00
3434;BME280;1730;41.932;25.548;2023-05-25T02:29:47;100975.66;;;14.02;100.00
3434;BME280;1730;41.932;25.548;2023-05-25T02:32:12;101005.06;;;14.07;100.00
3434;BME280;1730;41.932;25.548;2023-05-25T02:34:38;101018.00;;;13.93;100.00
3434;BME280;1730;41.932;25.548;2023-05-25T02:37:03;101029.53;;;13.86;100.00
3434;BME280;1730;41.932;25.548;2023-05-25T02:39:29;101081.81;;;13.97;100.00
3434;BME280;1730;41.932;25.548;2023-05-25T02:41:54;101075.53;;;13.97;100.00
3434;BME280;1730;41.932;25.548;2023-05-25T02:44:20;100961.47;;;13.27;100.00
3434;BME280;1730;41.932;25.548;2023-05-25T02:46:46;100758.50;;;12.10;100.00
3434;BME280;1730;41.932;25.548;2023-05-25T02:49:12;100952.28;;;13.39;100.00
3434;BME280;1730;41.932;25.548;2023-05-25T02:51:38;101054.09;;;14.15;100.00
3434;BME280;1730;41.932;25.548;2023-05-25T02:54:04;100956.66;;;13.30;100.00
3434;BME280;1730;41.932;25.548;2023-05-25T02:56:29;100824.81;;;12.99;100.00
3434;BME280;1730;41.932;25.548;2023-05-25T02:58:55;100905.03;;;13.52;100.00
3434;BME280;1730;41.932;25.548;2023-05-25T03:01:21;100690.84;;;12.22;100.00
3434;BME280;1730;41.932;25.548;2023-05-25T03:03:49;100935.72;;;13.83;100.00
3434;BME280;1730;41.932;25.548;2023-05-25T03:06:18;100668.81;;;12.05;100.00
3434;BME280;1730;41.932;25.548;2023-05-25T03:08:45;100825.28;;;12.83;100.00
3434;BME280;1730;41.932;25.548;2023-05-25T03:11:12;100990.59;;;13.96;100.00
3434;BME280;1730;41.932;25.548;2023-05-25T03:13:38;100860.72;;;13.12;100.00
3434;BME280;1730;41.932;25.548;2023-05-25T03:16:03;100950.38;;;13.71;100.00
3434;BME280;1730;41.932;25.548;2023-05-25T03:18:29;100785.69;;;13.03;100.00
3434;BME280;1730;41.932;25.548;2023-05-25T03:20:54;100946.44;;;13.85;100.00
3434;BME280;1730;41.932;25.548;2023-05-25T03:23:20;100472.72;;;11.18;100.00
3434;BME280;1730;41.932;25.548;2023-05-25T03:25:45;100774.69;;;13.25;100.00
3434;BME280;1730;41.932;25.548;2023-05-25T03:28:11;100891.63;;;14.31;100.00
3434;BME280;1730;41.932;25.548;2023-05-25T03:30:36;100847.09;;;14.33;100.00
3434;BME280;1730;41.932;25.548;2023-05-25T03:33:02;100819.84;;;14.73;100.00
3434;BME280;1730;41.932;25.548;2023-05-25T03:35:27;100573.13;;;13.76;100.00
3434;BME280;1730;41.932;25.548;2023-05-25T03:37:53;100705.72;;;15.29;100.00
3434;BME280;1730;41.932;25.548;2023-05-25T03:40:19;100584.28;;;15.57;100.00
3434;BME280;1730;41.932;25.548;2023-05-25T03:42:44;100517.88;;;16.11;100.00
3434;BME280;1730;41.932;25.548;2023-05-25T03:45:10;100353.66;;;15.87;100.00
3434;BME280;1730;41.932;25.548;2023-05-25T03:47:36;100296.16;;;16.32;100.00
3434;BME280;1730;41.932;25.548;2023-05-25T03:50:03;100207.34;;;16.87;100.00
3434;BME280;1730;41.932;25.548;2023-05-25T03:52:28;100029.31;;;17.03;100.00
3434;BME280;1730;41.932;25.548;2023-05-25T03:54:54;99971.88;;;17.12;100.00
3434;BME280;1730;41.932;25.548;2023-05-25T03:57:20;99773.25;;;17.32;100.00
3434;BME280;1730;41.932;25.548;2023-05-25T03:59:45;99749.75;;;18.26;100.00
3434;BME280;1730;41.932;25.548;2023-05-25T04:02:11;99704.47;;;18.53;100.00
3434;BME280;1730;41.932;25.548;2023-05-25T04:04:36;99450.59;;;18.10;100.00
3434;BME280;1730;41.932;25.548;2023-05-25T04:07:06;99540.28;;;19.10;100.00
3434;BME280;1730;41.932;25.548;2023-05-25T04:09:32;99477.16;;;18.98;100.00
3434;BME280;1730;41.932;25.548;2023-05-25T04:11:58;99464.41;;;19.18;100.00
3434;BME280;1730;41.932;25.548;2023-05-25T04:14:24;99448.44;;;19.35;100.00
3434;BME280;1730;41.932;25.548;2023-05-25T04:16:49;99405.28;;;19.11;100.00
3434;BME280;1730;41.932;25.548;2023-05-25T04:19:16;99433.00;;;18.95;100.00
3434;BME280;1730;41.932;25.548;2023-05-25T04:21:41;99407.06;;;18.64;100.00
3434;BME280;1730;41.932;25.548;2023-05-25T04:24:08;99473.09;;;18.81;100.00
3434;BME280;1730;41.932;25.548;2023-05-25T04:26:46;99428.97;;;19.51;100.00
3434;BME280;1730;41.932;25.548;2023-05-25T04:29:15;99415.91;;;19.53;100.00
3434;BME280;1730;41.932;25.548;2023-05-25T04:31:44;99388.12;;;19.50;100.00
3434;BME280;1730;41.932;25.548;2023-05-25T04:34:10;99381.16;;;19.34;100.00
3434;BME280;1730;41.932;25.548;2023-05-25T04:36:38;99305.59;;;18.80;100.00
3434;BME280;1730;41.932;25.548;2023-05-25T04:39:07;99379.66;;;19.18;100.00
3434;BME280;1730;41.932;25.548;2023-05-25T04:41:34;99359.47;;;19.98;100.00
3434;BME280;1730;41.932;25.548;2023-05-25T04:44:00;99390.16;;;19.08;100.00
3434;BME280;1730;41.932;25.548;2023-05-25T04:46:28;99363.94;;;19.47;100.00
3434;BME280;1730;41.932;25.548;2023-05-25T04:48:56;99328.59;;;20.80;100.00
3434;BME280;1730;41.932;25.548;2023-05-25T04:51:24;99283.84;;;20.55;100.00
3434;BME280;1730;41.932;25.548;2023-05-25T04:54:07;99277.06;;;20.64;100.00
3434;BME280;1730;41.932;25.548;2023-05-25T04:56:34;99279.22;;;20.55;100.00
3434;BME280;1730;41.932;25.548;2023-05-25T04:59:02;99270.34;;;20.91;100.00
3434;BME280;1730;41.932;25.548;2023-05-25T05:01:29;99228.88;;;20.50;100.00
3434;BME280;1730;41.932;25.548;2023-05-25T05:03:57;99249.16;;;21.30;100.00
3434;BME280;1730;41.932;25.548;2023-05-25T05:06:33;99228.06;;;21.30;100.00
3434;BME280;1730;41.932;25.548;2023-05-25T05:09:16;99219.94;;;21.78;100.00
3434;BME280;1730;41.932;25.548;2023-05-25T05:11:42;99231.06;;;21.47;100.00
3434;BME280;1730;41.932;25.548;2023-05-25T05:14:08;99218.34;;;21.89;100.00
3434;BME280;1730;41.932;25.548;2023-05-25T05:16:35;99221.13;;;22.37;100.00
3434;BME280;1730;41.932;25.548;2023-05-25T05:19:02;99164.16;;;22.97;100.00
3434;BME280;1730;41.932;25.548;2023-05-25T05:21:38;99171.81;;;22.83;100.00
3434;BME280;1730;41.932;25.548;2023-05-25T05:24:07;99177.59;;;23.52;100.00
3434;BME280;1730;41.932;25.548;2023-05-25T05:26:41;99136.94;;;24.22;100.00
3434;BME280;1730;41.932;25.548;2023-05-25T05:29:12;99117.09;;;24.70;100.00
3434;BME280;1730;41.932;25.548;2023-05-25T05:31:44;99103.75;;;24.17;100.00
3434;BME280;1730;41.932;25.548;2023-05-25T05:34:10;99103.41;;;24.92;100.00
3434;BME280;1730;41.932;25.548;2023-05-25T05:49:51;99104.63;;;25.18;100.00
3434;BME280;1730;41.932;25.548;2023-05-25T05:52:18;99139.84;;;25.87;100.00
3434;BME280;1730;41.932;25.548;2023-05-25T05:54:43;99093.50;;;26.80;100.00
3434;BME280;1730;41.932;25.548;2023-05-25T05:57:11;99080.78;;;25.72;100.00
3434;BME280;1730;41.932;25.548;2023-05-25T05:59:38;99098.28;;;26.04;100.00
3434;BME280;1730;41.932;25.548;2023-05-25T06:02:06;99094.13;;;26.87;100.00
3434;BME280;1730;41.932;25.548;2023-05-25T06:04:32;98867.34;;;25.01;100.00
3434;BME280;1730;41.932;25.548;2023-05-25T06:06:57;99092.88;;;27.05;100.00
3434;BME280;1730;41.932;25.548;2023-05-25T06:09:24;99008.03;;;27.41;100.00
3434;BME280;1730;41.932;25.548;2023-05-25T06:11:51;98908.78;;;27.02;100.00
3434;BME280;1730;41.932;25.548;2023-05-25T06:14:23;99127.72;;;28.00;100.00
3434;BME280;1730;41.932;25.548;2023-05-25T06:17:00;98674.41;;;24.67;100.00
3434;BME280;1730;41.932;25.548;2023-05-25T06:19:27;98951.75;;;26.73;100.00
3434;BME280;1730;41.932;25.548;2023-05-25T06:41:30;99115.66;;;27.59;100.00
3434;BME280;1730;41.932;25.548;2023-05-25T06:44:01;99113.78;;;27.27;100.00
3434;BME280;1730;41.932;25.548;2023-05-25T06:47:10;99113.72;;;27.59;100.00
3434;BME280;1730;41.932;25.548;2023-05-25T06:49:40;99184.75;;;27.39;100.00
3434;BME280;1730;41.932;25.548;2023-05-25T06:52:15;99119.84;;;26.24;100.00
3434;BME280;1730;41.932;25.548;2023-05-25T06:57:42;99111.94;;;27.38;100.00
3434;BME280;1730;41.932;25.548;2023-05-25T07:00:09;99120.22;;;26.96;100.00
3434;BME280;1730;41.932;25.548;2023-05-25T07:02:38;99124.59;;;25.85;100.00
3434;BME280;1730;41.932;25.548;2023-05-25T07:05:06;99117.41;;;25.84;100.00
3434;BME280;1730;41.932;25.548;2023-05-25T07:10:44;99196.13;;;26.03;100.00
3434;BME280;1730;41.932;25.548;2023-05-25T07:13:19;99184.16;;;26.41;100.00
3434;BME280;1730;41.932;25.548;2023-05-25T07:15:45;99109.91;;;26.55;100.00
3434;BME280;1730;41.932;25.548;2023-05-25T07:18:11;98995.25;;;26.40;100.00
3434;BME280;1730;41.932;25.548;2023-05-25T07:20:38;99124.34;;;26.35;100.00
3434;BME280;1730;41.932;25.548;2023-05-25T07:23:09;99108.28;;;26.32;100.00
3434;BME280;1730;41.932;25.548;2023-05-25T07:25:36;98742.41;;;23.75;100.00
3434;BME280;1730;41.932;25.548;2023-05-25T07:28:02;99126.44;;;26.23;100.00
3434;BME280;1730;41.932;25.548;2023-05-25T07:30:29;98995.06;;;25.62;100.00
3434;BME280;1730;41.932;25.548;2023-05-25T07:32:54;98613.91;;;23.59;100.00
3434;BME280;1730;41.932;25.548;2023-05-25T07:35:21;98971.41;;;25.49;100.00
3434;BME280;1730;41.932;25.548;2023-05-25T07:37:55;99123.03;;;27.01;100.00
3434;BME280;1730;41.932;25.548;2023-05-25T07:40:21;99064.31;;;26.94;100.00
3434;BME280;1730;41.932;25.548;2023-05-25T07:42:46;98958.44;;;25.76;100.00
3434;BME280;1730;41.932;25.548;2023-05-25T07:52:49;99118.00;;;26.13;100.00
3434;BME280;1730;41.932;25.548;2023-05-25T07:55:18;98678.91;;;23.10;100.00
3434;BME280;1730;41.932;25.548;2023-05-25T07:57:46;99141.97;;;26.02;100.00
3434;BME280;1730;41.932;25.548;2023-05-25T08:00:12;99159.09;;;25.61;100.00
3434;BME280;1730;41.932;25.548;2023-05-25T08:02:37;99155.63;;;26.14;100.00
3434;BME280;1730;41.932;25.548;2023-05-25T08:05:03;99006.34;;;25.17;100.00
3434;BME280;1730;41.932;25.548;2023-05-25T08:07:33;98781.25;;;23.57;100.00
3434;BME280;1730;41.932;25.548;2023-05-25T08:09:59;99131.81;;;26.34;100.00
3434;BME280;1730;41.932;25.548;2023-05-25T08:12:24;99158.06;;;26.10;100.00
3434;BME280;1730;41.932;25.548;2023-05-25T08:14:50;99004.97;;;25.84;100.00
3434;BME280;1730;41.932;25.548;2023-05-25T08:17:16;98916.19;;;24.84;100.00
3434;BME280;1730;41.932;25.548;2023-05-25T08:19:41;99161.34;;;26.29;100.00
3434;BME280;1730;41.932;25.548;2023-05-25T08:22:07;99047.38;;;25.30;100.00
3434;BME280;1730;41.932;25.548;2023-05-25T08:24:32;99135.69;;;26.12;100.00
3434;BME280;1730;41.932;25.548;2023-05-25T08:26:58;99150.66;;;26.16;100.00
3434;BME280;1730;41.932;25.548;2023-05-25T08:29:26;99085.78;;;25.31;100.00
3434;BME280;1730;41.932;25.548;2023-05-25T08:31:52;99120.03;;;25.74;100.00
3434;BME280;1730;41.932;25.548;2023-05-25T08:34:18;99144.31;;;26.15;100.00
3434;BME280;1730;41.932;25.548;2023-05-25T08:36:43;98983.66;;;25.14;100.00
3434;BME280;1730;41.932;25.548;2023-05-25T08:39:10;98995.03;;;25.40;100.00
3434;BME280;1730;41.932;25.548;2023-05-25T08:41:40;99126.56;;;25.89;100.00
3434;BME280;1730;41.932;25.548;2023-05-25T08:44:19;98921.72;;;24.84;100.00
3434;BME280;1730;41.932;25.548;2023-05-25T08:46:48;98577.84;;;22.50;100.00
3434;BME280;1730;41.932;25.548;2023-05-25T08:49:14;99128.19;;;25.64;100.00
3434;BME280;1730;41.932;25.548;2023-05-25T08:52:00;98932.19;;;24.27;100.00
3434;BME280;1730;41.932;25.548;2023-05-25T08:54:45;98642.38;;;22.64;100.00
3434;BME280;1730;41.932;25.548;2023-05-25T08:57:28;98957.56;;;25.00;100.00
3434;BME280;1730;41.932;25.548;2023-05-25T09:00:03;99139.56;;;25.67;100.00
3434;BME280;1730;41.932;25.548;2023-05-25T09:02:36;99121.81;;;26.07;100.00
3434;BME280;1730;41.932;25.548;2023-05-25T09:05:15;99125.19;;;25.87;100.00
3434;BME280;1730;41.932;25.548;2023-05-25T09:07:44;99025.97;;;25.42;100.00
3434;BME280;1730;41.932;25.548;2023-05-25T09:13:28;98548.19;;;22.35;100.00
3434;BME280;1730;41.932;25.548;2023-05-25T09:29:41;99173.16;;;25.59;100.00
3434;BME280;1730;41.932;25.548;2023-05-25T09:32:10;98533.38;;;22.20;100.00
3434;BME280;1730;41.932;25.548;2023-05-25T09:34:53;98994.22;;;25.61;100.00
3434;BME280;1730;41.932;25.548;2023-05-25T09:37:34;99096.28;;;26.48;100.00
3434;BME280;1730;41.932;25.548;2023-05-25T09:40:02;98895.66;;;24.91;100.00
3434;BME280;1730;41.932;25.548;2023-05-25T09:42:44;98959.38;;;25.87;100.00
3434;BME280;1730;41.932;25.548;2023-05-25T09:45:27;99076.19;;;26.95;100.00
3434;BME280;1730;41.932;25.548;2023-05-25T09:48:10;98943.63;;;26.56;100.00
3434;BME280;1730;41.932;25.548;2023-05-25T09:50:48;98935.63;;;26.55;100.00
3434;BME280;1730;41.932;25.548;2023-05-25T09:53:15;98930.22;;;26.80;100.00
3434;BME280;1730;41.932;25.548;2023-05-25T09:55:41;98985.03;;;27.35;100.00
3434;BME280;1730;41.932;25.548;2023-05-25T09:58:07;98939.34;;;27.32;100.00
3434;BME280;1730;41.932;25.548;2023-05-25T10:00:33;98748.38;;;26.08;100.00
3434;BME280;1730;41.932;25.548;2023-05-25T10:02:58;99050.19;;;28.30;100.00
3434;BME280;1730;41.932;25.548;2023-05-25T10:05:24;98998.75;;;27.82;100.00
3434;BME280;1730;41.932;25.548;2023-05-25T10:07:50;98882.41;;;26.95;100.00
3434;BME280;1730;41.932;25.548;2023-05-25T10:10:20;99048.34;;;27.73;100.00
3434;BME280;1730;41.932;25.548;2023-05-25T10:12:49;98933.09;;;26.16;100.00
3434;BME280;1730;41.932;25.548;2023-05-25T10:15:17;98699.72;;;24.86;100.00
3434;BME280;1730;41.932;25.548;2023-05-25T10:17:53;99043.00;;;27.00;100.00
3434;BME280;1730;41.932;25.548;2023-05-25T10:20:22;98984.78;;;25.84;100.00
3434;BME280;1730;41.932;25.548;2023-05-25T10:23:09;98946.19;;;26.26;100.00
3434;BME280;1730;41.932;25.548;2023-05-25T10:25:46;99046.19;;;27.23;100.00
3434;BME280;1730;41.932;25.548;2023-05-25T10:28:21;98827.47;;;25.72;100.00
3434;BME280;1730;41.932;25.548;2023-05-25T10:30:48;99057.19;;;27.55;100.00
3434;BME280;1730;41.932;25.548;2023-05-25T10:33:14;99040.59;;;27.70;100.00
3434;BME280;1730;41.932;25.548;2023-05-25T10:35:42;99065.53;;;27.70;100.00
3434;BME280;1730;41.932;25.548;2023-05-25T10:38:09;98838.53;;;26.14;100.00
3434;BME280;1730;41.932;25.548;2023-05-25T10:40:36;98673.94;;;25.39;100.00
3434;BME280;1730;41.932;25.548;2023-05-25T10:43:03;98818.81;;;25.64;100.00
3434;BME280;1730;41.932;25.548;2023-05-25T10:45:29;99009.38;;;26.81;100.00
3434;BME280;1730;41.932;25.548;2023-05-25T10:47:55;98826.66;;;26.14;100.00
3434;BME280;1730;41.932;25.548;2023-05-25T10:50:25;98679.94;;;25.31;100.00
3434;BME280;1730;41.932;25.548;2023-05-25T10:52:58;98849.66;;;26.19;100.00
3434;BME280;1730;41.932;25.548;2023-05-25T10:55:26;99030.66;;;26.75;100.00
3434;BME280;1730;41.932;25.548;2023-05-25T10:58:13;98729.00;;;25.24;100.00
3434;BME280;1730;41.932;25.548;2023-05-25T11:00:41;98855.84;;;26.36;100.00
3434;BME280;1730;41.932;25.548;2023-05-25T11:03:09;99020.06;;;27.61;100.00
3434;BME280;1730;41.932;25.548;2023-05-25T11:05:38;99018.78;;;27.99;97.72
3434;BME280;1730;41.932;25.548;2023-05-25T11:08:06;99041.19;;;27.88;100.00
3434;BME280;1730;41.932;25.548;2023-05-25T11:16:13;99057.31;;;28.06;100.00
3434;BME280;1730;41.932;25.548;2023-05-25T11:18:49;99016.84;;;27.95;100.00
3434;BME280;1730;41.932;25.548;2023-05-25T11:23:57;99047.84;;;27.76;100.00
3434;BME280;1730;41.932;25.548;2023-05-25T11:26:28;99044.56;;;27.95;100.00
3434;BME280;1730;41.932;25.548;2023-05-25T11:28:55;98991.28;;;27.72;100.00
3434;BME280;1730;41.932;25.548;2023-05-25T11:31:27;99006.19;;;27.56;100.00
3434;BME280;1730;41.932;25.548;2023-05-25T11:34:01;99024.50;;;27.05;100.00
3434;BME280;1730;41.932;25.548;2023-05-25T11:36:29;98995.06;;;27.46;100.00
3434;BME280;1730;41.932;25.548;2023-05-25T11:38:59;98529.22;;;24.19;100.00
3434;BME280;1730;41.932;25.548;2023-05-25T11:41:29;99002.94;;;27.12;100.00
3434;BME280;1730;41.932;25.548;2023-05-25T11:44:03;99034.22;;;27.13;100.00
3434;BME280;1730;41.932;25.548;2023-05-25T11:46:29;98816.81;;;26.28;100.00
3434;BME280;1730;41.932;25.548;2023-05-25T11:48:57;98790.50;;;26.20;100.00
3434;BME280;1730;41.932;25.548;2023-05-25T11:51:26;99000.78;;;27.24;100.00
3434;BME280;1730;41.932;25.548;2023-05-25T11:53:52;98986.81;;;27.61;100.00
3434;BME280;1730;41.932;25.548;2023-05-25T11:56:18;98996.22;;;27.65;100.00
3434;BME280;1730;41.932;25.548;2023-05-25T11:58:46;98870.28;;;27.06;100.00
3434;BME280;1730;41.932;25.548;2023-05-25T12:01:24;98999.59;;;27.88;100.00
3434;BME280;1730;41.932;25.548;2023-05-25T12:03:51;98824.06;;;27.06;100.00
3434;BME280;1730;41.932;25.548;2023-05-25T12:06:33;98894.94;;;27.12;100.00
3434;BME280;1730;41.932;25.548;2023-05-25T12:09:02;98976.00;;;27.60;100.00
3434;BME280;1730;41.932;25.548;2023-05-25T12:11:33;98974.25;;;27.44;100.00
3434;BME280;1730;41.932;25.548;2023-05-25T12:14:02;98982.19;;;27.15;100.00
3434;BME280;1730;41.932;25.548;2023-05-25T12:16:29;98821.28;;;26.39;100.00
3434;BME280;1730;41.932;25.548;2023-05-25T12:18:55;98961.75;;;27.31;100.00
3434;BME280;1730;41.932;25.548;2023-05-25T12:21:22;98874.97;;;26.43;100.00
3434;BME280;1730;41.932;25.548;2023-05-25T12:24:04;98971.53;;;26.92;100.00
3434;BME280;1730;41.932;25.548;2023-05-25T12:26:46;98662.16;;;24.32;100.00
3434;BME280;1730;41.932;25.548;2023-05-25T12:29:12;99016.69;;;26.23;100.00
3434;BME280;1730;41.932;25.548;2023-05-25T12:31:37;99038.31;;;26.31;100.00
3434;BME280;1730;41.932;25.548;2023-05-25T12:34:13;99025.69;;;26.14;100.00
3434;BME280;1730;41.932;25.548;2023-05-25T12:39:09;99012.06;;;26.07;100.00
3434;BME280;1730;41.932;25.548;2023-05-25T12:41:49;99020.59;;;26.00;100.00
3434;BME280;1730;41.932;25.548;2023-05-25T12:44:35;99070.53;;;25.50;100.00
3434;BME280;1730;41.932;25.548;2023-05-25T12:47:12;98624.97;;;23.09;100.00
3434;BME280;1730;41.932;25.548;2023-05-25T12:49:40;99005.19;;;24.74;100.00
3434;BME280;1730;41.932;25.548;2023-05-25T12:52:07;98947.03;;;24.59;100.00
3434;BME280;1730;41.932;25.548;2023-05-25T12:57:04;99055.59;;;24.86;100.00
3434;BME280;1730;41.932;25.548;2023-05-25T12:59:31;99058.41;;;24.58;100.00
3434;BME280;1730;41.932;25.548;2023-05-25T13:01:57;98838.22;;;23.11;100.00
3434;BME280;1730;41.932;25.548;2023-05-25T13:04:23;99130.91;;;24.13;100.00
3434;BME280;1730;41.932;25.548;2023-05-25T13:06:49;99154.03;;;23.84;100.00
3434;BME280;1730;41.932;25.548;2023-05-25T13:09:14;99164.41;;;23.54;100.00
3434;BME280;1730;41.932;25.548;2023-05-25T13:11:40;99051.03;;;22.82;100.00
3434;BME280;1730;41.932;25.548;2023-05-25T13:14:06;99115.84;;;22.89;100.00
3434;BME280;1730;41.932;25.548;2023-05-25T13:16:32;99099.59;;;22.88;100.00
3434;BME280;1730;41.932;25.548;2023-05-25T13:18:57;99102.50;;;22.52;100.00
3434;BME280;1730;41.932;25.548;2023-05-25T13:21:23;99070.31;;;22.17;100.00
3434;BME280;1730;41.932;25.548;2023-05-25T13:23:48;98408.91;;;18.17;100.00
3434;BME280;1730;41.932;25.548;2023-05-25T13:26:14;98799.88;;;20.60;100.00
3434;BME280;1730;41.932;25.548;2023-05-25T13:28:39;98916.50;;;21.23;100.00
3434;BME280;1730;41.932;25.548;2023-05-25T13:31:05;98852.94;;;20.48;100.00
3434;BME280;1730;41.932;25.548;2023-05-25T13:33:30;98755.03;;;19.70;100.00
3434;BME280;1730;41.932;25.548;2023-05-25T13:35:56;99156.50;;;21.32;100.00
3434;BME280;1730;41.932;25.548;2023-05-25T13:38:35;99062.56;;;20.25;100.00
3434;BME280;1730;41.932;25.548;2023-05-25T13:41:02;99261.09;;;21.17;100.00
3434;BME280;1730;41.932;25.548;2023-05-25T13:43:28;99260.88;;;21.12;100.00
3434;BME280;1730;41.932;25.548;2023-05-25T13:45:54;99287.63;;;21.23;100.00
3434;BME280;1730;41.932;25.548;2023-05-25T13:48:20;99287.22;;;21.20;100.00
3434;BME280;1730;41.932;25.548;2023-05-25T13:50:45;99179.41;;;20.94;100.00
3434;BME280;1730;41.932;25.548;2023-05-25T13:53:12;99358.69;;;22.24;100.00
3434;BME280;1730;41.932;25.548;2023-05-25T13:55:38;99382.16;;;22.38;100.00
3434;BME280;1730;41.932;25.548;2023-05-25T13:58:05;99471.88;;;22.94;100.00
3434;BME280;1730;41.932;25.548;2023-05-25T14:00:32;99467.75;;;22.84;100.00
3434;BME280;1730;41.932;25.548;2023-05-25T14:02:57;99506.78;;;23.11;100.00
3434;BME280;1730;41.932;25.548;2023-05-25T14:05:23;99479.97;;;22.88;100.00
3434;BME280;1730;41.932;25.548;2023-05-25T14:07:50;99433.66;;;22.67;100.00
3434;BME280;1730;41.932;25.548;2023-05-25T14:10:16;99458.31;;;22.37;100.00
3434;BME280;1730;41.932;25.548;2023-05-25T14:12:43;99519.19;;;22.59;100.00
3434;BME280;1730;41.932;25.548;2023-05-25T14:15:08;99426.09;;;22.63;100.00
3434;BME280;1730;41.932;25.548;2023-05-25T14:17:34;99430.06;;;22.48;100.00
3434;BME280;1730;41.932;25.548;2023-05-25T14:20:00;99379.28;;;22.51;100.00
3434;BME280;1730;41.932;25.548;2023-05-25T14:22:29;99425.97;;;22.76;100.00
3434;BME280;1730;41.932;25.548;2023-05-25T14:24:54;99330.66;;;22.70;100.00
3434;BME280;1730;41.932;25.548;2023-05-25T14:27:20;99371.13;;;22.81;100.00
3434;BME280;1730;41.932;25.548;2023-05-25T14:29:46;99408.31;;;22.83;100.00